sensor_id;sensor_type;location;lat;lon;timestamp;P1;durP1;ratioP1;P2;durP2;ratioP2
25111;SDS011;13092;51.996;4.458;2023-05-10T00:01:46;51.83;;;45.75;;
25111;SDS011;13092;51.996;4.458;2023-05-10T00:04:15;50.45;;;43.75;;
25111;SDS011;13092;51.996;4.458;2023-05-10T00:06:44;53.08;;;46.53;;
25111;SDS011;13092;51.996;4.458;2023-05-10T00:09:12;57.17;;;46.88;;
25111;SDS011;13092;51.996;4.458;2023-05-10T00:11:42;57.08;;;48.50;;
25111;SDS011;13092;51.996;4.458;2023-05-10T00:14:13;54.22;;;46.55;;
25111;SDS011;13092;51.996;4.458;2023-05-10T00:16:41;58.95;;;47.58;;
25111;SDS011;13092;51.996;4.458;2023-05-10T00:19:10;53.35;;;46.50;;
25111;SDS011;13092;51.996;4.458;2023-05-10T00:21:38;53.28;;;46.63;;
25111;SDS011;13092;51.996;4.458;2023-05-10T00:24:06;56.72;;;47.97;;
25111;SDS011;13092;51.996;4.458;2023-05-10T00:26:34;54.05;;;48.10;;
25111;SDS011;13092;51.996;4.458;2023-05-10T00:29:04;60.08;;;49.63;;
25111;SDS011;13092;51.996;4.458;2023-05-10T00:31:32;55.47;;;48.63;;
25111;SDS011;13092;51.996;4.458;2023-05-10T00:34:01;57.13;;;48.70;;
25111;SDS011;13092;51.996;4.458;2023-05-10T00:36:29;54.15;;;48.10;;
25111;SDS011;13092;51.996;4.458;2023-05-10T00:38:57;62.72;;;51.15;;
25111;SDS011;13092;51.996;4.458;2023-05-10T00:41:26;71.45;;;51.30;;
25111;SDS011;13092;51.996;4.458;2023-05-10T00:43:54;69.00;;;49.83;;
25111;SDS011;13092;51.996;4.458;2023-05-10T00:46:24;74.43;;;47.88;;
25111;SDS011;13092;51.996;4.458;2023-05-10T00:48:53;83.80;;;48.83;;
25111;SDS011;13092;51.996;4.458;2023-05-10T00:51:24;83.25;;;48.35;;
25111;SDS011;13092;51.996;4.458;2023-05-10T00:53:53;81.72;;;49.30;;
25111;SDS011;13092;51.996;4.458;2023-05-10T00:56:22;67.93;;;47.45;;
25111;SDS011;13092;51.996;4.458;2023-05-10T00:58:50;100.13;;;49.80;;
25111;SDS011;13092;51.996;4.458;2023-05-10T01:01:19;66.55;;;47.25;;
25111;SDS011;13092;51.996;4.458;2023-05-10T01:03:48;71.50;;;47.72;;
25111;SDS011;13092;51.996;4.458;2023-05-10T01:06:18;86.28;;;49.05;;
25111;SDS011;13092;51.996;4.458;2023-05-10T01:08:47;83.32;;;48.95;;
25111;SDS011;13092;51.996;4.458;2023-05-10T01:11:15;78.30;;;49.40;;
25111;SDS011;13092;51.996;4.458;2023-05-10T01:13:43;77.60;;;49.53;;
25111;SDS011;13092;51.996;4.458;2023-05-10T01:16:19;89.82;;;49.70;;
25111;SDS011;13092;51.996;4.458;2023-05-10T01:18:58;85.03;;;49.95;;
25111;SDS011;13092;51.996;4.458;2023-05-10T01:21:30;78.85;;;50.10;;
25111;SDS011;13092;51.996;4.458;2023-05-10T01:24:09;77.20;;;48.42;;
25111;SDS011;13092;51.996;4.458;2023-05-10T01:27:00;75.43;;;48.20;;
25111;SDS011;13092;51.996;4.458;2023-05-10T01:29:55;77.85;;;49.10;;
25111;SDS011;13092;51.996;4.458;2023-05-10T01:32:44;70.45;;;46.75;;
25111;SDS011;13092;51.996;4.458;2023-05-10T01:35:19;61.92;;;44.78;;
25111;SDS011;13092;51.996;4.458;2023-05-10T01:37:56;68.88;;;47.50;;
25111;SDS011;13092;51.996;4.458;2023-05-10T01:40:33;65.70;;;44.70;;
25111;SDS011;13092;51.996;4.458;2023-05-10T01:43:08;58.95;;;44.05;;
25111;SDS011;13092;51.996;4.458;2023-05-10T01:45:44;63.53;;;43.30;;
25111;SDS011;13092;51.996;4.458;2023-05-10T01:48:19;59.00;;;44.05;;
25111;SDS011;13092;51.996;4.458;2023-05-10T01:50:49;55.45;;;43.13;;
25111;SDS011;13092;51.996;4.458;2023-05-10T01:53:20;57.55;;;44.75;;
25111;SDS011;13092;51.996;4.458;2023-05-10T01:55:51;57.55;;;45.20;;
25111;SDS011;13092;51.996;4.458;2023-05-10T01:58:22;61.75;;;45.75;;
25111;SDS011;13092;51.996;4.458;2023-05-10T02:00:54;57.42;;;45.80;;
25111;SDS011;13092;51.996;4.458;2023-05-10T02:03:27;60.33;;;45.20;;
25111;SDS011;13092;51.996;4.458;2023-05-10T02:05:58;62.10;;;47.75;;
25111;SDS011;13092;51.996;4.458;2023-05-10T02:08:27;59.03;;;46.65;;
25111;SDS011;13092;51.996;4.458;2023-05-10T02:10:56;65.00;;;47.80;;
25111;SDS011;13092;51.996;4.458;2023-05-10T02:13:26;64.45;;;48.17;;
25111;SDS011;13092;51.996;4.458;2023-05-10T02:15:59;61.92;;;47.35;;
25111;SDS011;13092;51.996;4.458;2023-05-10T02:18:30;65.68;;;47.35;;
25111;SDS011;13092;51.996;4.458;2023-05-10T02:20:59;63.25;;;47.47;;
25111;SDS011;13092;51.996;4.458;2023-05-10T02:23:29;66.28;;;48.35;;
25111;SDS011;13092;51.996;4.458;2023-05-10T02:25:58;66.40;;;48.13;;
25111;SDS011;13092;51.996;4.458;2023-05-10T02:28:29;63.85;;;47.67;;
25111;SDS011;13092;51.996;4.458;2023-05-10T02:30:58;69.28;;;48.88;;
25111;SDS011;13092;51.996;4.458;2023-05-10T02:33:27;67.72;;;47.78;;
25111;SDS011;13092;51.996;4.458;2023-05-10T02:35:58;67.70;;;49.00;;
25111;SDS011;13092;51.996;4.458;2023-05-10T02:38:28;60.08;;;46.45;;
25111;SDS011;13092;51.996;4.458;2023-05-10T02:40:57;63.00;;;46.47;;
25111;SDS011;13092;51.996;4.458;2023-05-10T02:43:27;65.95;;;47.25;;
25111;SDS011;13092;51.996;4.458;2023-05-10T02:46:00;69.60;;;47.78;;
25111;SDS011;13092;51.996;4.458;2023-05-10T02:48:28;72.15;;;49.15;;
25111;SDS011;13092;51.996;4.458;2023-05-10T02:51:03;58.67;;;47.30;;
25111;SDS011;13092;51.996;4.458;2023-05-10T02:53:37;65.60;;;46.67;;
25111;SDS011;13092;51.996;4.458;2023-05-10T02:56:09;58.00;;;45.78;;
25111;SDS011;13092;51.996;4.458;2023-05-10T02:58:41;59.75;;;45.75;;
25111;SDS011;13092;51.996;4.458;2023-05-10T03:01:10;58.83;;;45.60;;
25111;SDS011;13092;51.996;4.458;2023-05-10T03:03:38;57.30;;;48.38;;
25111;SDS011;13092;51.996;4.458;2023-05-10T03:06:08;56.28;;;45.90;;
25111;SDS011;13092;51.996;4.458;2023-05-10T03:08:36;57.75;;;46.90;;
25111;SDS011;13092;51.996;4.458;2023-05-10T03:11:10;52.78;;;46.83;;
25111;SDS011;13092;51.996;4.458;2023-05-10T03:13:54;53.58;;;45.05;;
25111;SDS011;13092;51.996;4.458;2023-05-10T03:16:32;53.65;;;47.35;;
25111;SDS011;13092;51.996;4.458;2023-05-10T03:19:06;55.38;;;44.08;;
25111;SDS011;13092;51.996;4.458;2023-05-10T03:21:41;51.13;;;44.30;;
25111;SDS011;13092;51.996;4.458;2023-05-10T03:24:11;54.92;;;46.28;;
25111;SDS011;13092;51.996;4.458;2023-05-10T03:26:42;54.97;;;46.28;;
25111;SDS011;13092;51.996;4.458;2023-05-10T03:29:11;50.25;;;43.17;;
25111;SDS011;13092;51.996;4.458;2023-05-10T03:31:43;49.35;;;43.95;;
25111;SDS011;13092;51.996;4.458;2023-05-10T03:34:12;57.35;;;48.92;;
25111;SDS011;13092;51.996;4.458;2023-05-10T03:36:42;50.22;;;44.17;;
25111;SDS011;13092;51.996;4.458;2023-05-10T03:39:10;61.35;;;48.20;;
25111;SDS011;13092;51.996;4.458;2023-05-10T03:41:38;66.28;;;46.83;;
25111;SDS011;13092;51.996;4.458;2023-05-10T03:44:06;67.47;;;50.78;;
25111;SDS011;13092;51.996;4.458;2023-05-10T03:46:35;60.25;;;46.97;;
25111;SDS011;13092;51.996;4.458;2023-05-10T03:49:03;50.90;;;43.50;;
25111;SDS011;13092;51.996;4.458;2023-05-10T03:51:32;54.13;;;42.10;;
25111;SDS011;13092;51.996;4.458;2023-05-10T03:54:02;52.60;;;45.25;;
25111;SDS011;13092;51.996;4.458;2023-05-10T03:56:30;48.90;;;41.30;;
25111;SDS011;13092;51.996;4.458;2023-05-10T03:58:59;53.95;;;42.90;;
25111;SDS011;13092;51.996;4.458;2023-05-10T04:01:27;49.65;;;42.35;;
25111;SDS011;13092;51.996;4.458;2023-05-10T04:03:55;56.42;;;44.50;;
25111;SDS011;13092;51.996;4.458;2023-05-10T04:06:28;56.55;;;44.65;;
25111;SDS011;13092;51.996;4.458;2023-05-10T04:08:57;63.83;;;46.83;;
25111;SDS011;13092;51.996;4.458;2023-05-10T04:11:31;59.30;;;43.28;;
25111;SDS011;13092;51.996;4.458;2023-05-10T04:14:02;54.97;;;43.35;;
25111;SDS011;13092;51.996;4.458;2023-05-10T04:16:30;63.50;;;43.63;;
25111;SDS011;13092;51.996;4.458;2023-05-10T04:18:58;60.25;;;45.17;;
25111;SDS011;13092;51.996;4.458;2023-05-10T04:21:29;68.38;;;44.83;;
25111;SDS011;13092;51.996;4.458;2023-05-10T04:23:58;68.60;;;43.53;;
25111;SDS011;13092;51.996;4.458;2023-05-10T04:26:28;71.88;;;45.40;;
25111;SDS011;13092;51.996;4.458;2023-05-10T04:28:59;70.25;;;42.25;;
25111;SDS011;13092;51.996;4.458;2023-05-10T04:31:27;73.10;;;41.83;;
25111;SDS011;13092;51.996;4.458;2023-05-10T04:33:56;71.63;;;41.25;;
25111;SDS011;13092;51.996;4.458;2023-05-10T04:36:24;64.53;;;38.60;;
25111;SDS011;13092;51.996;4.458;2023-05-10T04:38:52;69.30;;;38.75;;
25111;SDS011;13092;51.996;4.458;2023-05-10T04:41:24;65.97;;;39.20;;
25111;SDS011;13092;51.996;4.458;2023-05-10T04:43:59;69.13;;;36.60;;
25111;SDS011;13092;51.996;4.458;2023-05-10T04:46:27;57.90;;;36.15;;
25111;SDS011;13092;51.996;4.458;2023-05-10T04:48:56;50.65;;;35.33;;
25111;SDS011;13092;51.996;4.458;2023-05-10T04:51:25;44.53;;;34.70;;
25111;SDS011;13092;51.996;4.458;2023-05-10T04:53:58;37.17;;;32.00;;
25111;SDS011;13092;51.996;4.458;2023-05-10T04:56:32;35.17;;;31.27;;
25111;SDS011;13092;51.996;4.458;2023-05-10T04:59:02;32.08;;;28.92;;
25111;SDS011;13092;51.996;4.458;2023-05-10T05:01:30;31.30;;;28.23;;
25111;SDS011;13092;51.996;4.458;2023-05-10T05:03:59;30.55;;;27.67;;
25111;SDS011;13092;51.996;4.458;2023-05-10T05:06:27;29.85;;;27.35;;
25111;SDS011;13092;51.996;4.458;2023-05-10T05:08:56;27.98;;;25.73;;
25111;SDS011;13092;51.996;4.458;2023-05-10T05:11:24;28.55;;;26.35;;
25111;SDS011;13092;51.996;4.458;2023-05-10T05:13:52;28.73;;;26.42;;
25111;SDS011;13092;51.996;4.458;2023-05-10T05:16:22;28.65;;;26.27;;
25111;SDS011;13092;51.996;4.458;2023-05-10T05:18:51;28.30;;;26.17;;
25111;SDS011;13092;51.996;4.458;2023-05-10T05:21:19;28.52;;;26.30;;
25111;SDS011;13092;51.996;4.458;2023-05-10T05:23:51;28.65;;;26.45;;
25111;SDS011;13092;51.996;4.458;2023-05-10T05:26:19;28.65;;;26.45;;
25111;SDS011;13092;51.996;4.458;2023-05-10T05:28:48;28.75;;;26.25;;
25111;SDS011;13092;51.996;4.458;2023-05-10T05:31:20;29.00;;;26.77;;
25111;SDS011;13092;51.996;4.458;2023-05-10T05:33:52;28.60;;;26.40;;
25111;SDS011;13092;51.996;4.458;2023-05-10T05:36:21;29.23;;;26.88;;
25111;SDS011;13092;51.996;4.458;2023-05-10T05:38:49;29.25;;;26.88;;
25111;SDS011;13092;51.996;4.458;2023-05-10T05:41:18;29.38;;;26.92;;
25111;SDS011;13092;51.996;4.458;2023-05-10T05:43:49;29.50;;;27.08;;
25111;SDS011;13092;51.996;4.458;2023-05-10T05:46:18;30.05;;;27.55;;
25111;SDS011;13092;51.996;4.458;2023-05-10T05:48:46;29.38;;;26.98;;
25111;SDS011;13092;51.996;4.458;2023-05-10T05:51:16;29.15;;;26.75;;
25111;SDS011;13092;51.996;4.458;2023-05-10T05:53:48;30.45;;;27.95;;
25111;SDS011;13092;51.996;4.458;2023-05-10T05:56:18;29.95;;;27.55;;
25111;SDS011;13092;51.996;4.458;2023-05-10T05:58:51;30.77;;;28.27;;
25111;SDS011;13092;51.996;4.458;2023-05-10T06:01:19;30.15;;;27.75;;
25111;SDS011;13092;51.996;4.458;2023-05-10T06:03:50;31.77;;;29.17;;
25111;SDS011;13092;51.996;4.458;2023-05-10T06:06:21;31.13;;;28.63;;
25111;SDS011;13092;51.996;4.458;2023-05-10T06:08:54;31.65;;;29.05;;
25111;SDS011;13092;51.996;4.458;2023-05-10T06:11:23;31.90;;;29.33;;
25111;SDS011;13092;51.996;4.458;2023-05-10T06:13:52;33.13;;;30.33;;
25111;SDS011;13092;51.996;4.458;2023-05-10T06:16:21;32.72;;;30.13;;
25111;SDS011;13092;51.996;4.458;2023-05-10T06:18:50;32.20;;;29.60;;
25111;SDS011;13092;51.996;4.458;2023-05-10T06:21:18;32.20;;;29.60;;
25111;SDS011;13092;51.996;4.458;2023-05-10T06:23:48;31.30;;;28.90;;
25111;SDS011;13092;51.996;4.458;2023-05-10T06:26:17;32.00;;;29.42;;
25111;SDS011;13092;51.996;4.458;2023-05-10T06:28:45;32.80;;;30.20;;
25111;SDS011;13092;51.996;4.458;2023-05-10T06:31:13;32.47;;;29.77;;
25111;SDS011;13092;51.996;4.458;2023-05-10T06:33:49;31.70;;;29.20;;
25111;SDS011;13092;51.996;4.458;2023-05-10T06:36:21;32.05;;;29.35;;
25111;SDS011;13092;51.996;4.458;2023-05-10T06:38:59;32.03;;;29.42;;
25111;SDS011;13092;51.996;4.458;2023-05-10T06:41:30;32.17;;;29.65;;
25111;SDS011;13092;51.996;4.458;2023-05-10T06:44:00;32.55;;;29.95;;
25111;SDS011;13092;51.996;4.458;2023-05-10T06:46:29;32.97;;;30.33;;
25111;SDS011;13092;51.996;4.458;2023-05-10T06:49:00;33.40;;;30.60;;
25111;SDS011;13092;51.996;4.458;2023-05-10T06:51:29;32.25;;;29.70;;
25111;SDS011;13092;51.996;4.458;2023-05-10T06:54:01;33.10;;;30.40;;
25111;SDS011;13092;51.996;4.458;2023-05-10T06:56:30;33.08;;;30.38;;
25111;SDS011;13092;51.996;4.458;2023-05-10T06:58:58;33.67;;;30.75;;
25111;SDS011;13092;51.996;4.458;2023-05-10T07:01:28;32.28;;;29.58;;
25111;SDS011;13092;51.996;4.458;2023-05-10T07:03:56;32.70;;;30.00;;
25111;SDS011;13092;51.996;4.458;2023-05-10T07:06:25;33.15;;;30.23;;
25111;SDS011;13092;51.996;4.458;2023-05-10T07:08:59;34.33;;;31.23;;
25111;SDS011;13092;51.996;4.458;2023-05-10T07:11:29;34.47;;;31.55;;
25111;SDS011;13092;51.996;4.458;2023-05-10T07:13:57;35.25;;;32.15;;
25111;SDS011;13092;51.996;4.458;2023-05-10T07:16:26;34.95;;;31.90;;
25111;SDS011;13092;51.996;4.458;2023-05-10T07:18:57;35.20;;;32.20;;
25111;SDS011;13092;51.996;4.458;2023-05-10T07:21:28;34.05;;;31.15;;
25111;SDS011;13092;51.996;4.458;2023-05-10T07:23:57;34.70;;;31.70;;
25111;SDS011;13092;51.996;4.458;2023-05-10T07:26:26;34.92;;;31.92;;
25111;SDS011;13092;51.996;4.458;2023-05-10T07:28:59;35.75;;;32.58;;
25111;SDS011;13092;51.996;4.458;2023-05-10T07:31:29;34.17;;;31.35;;
25111;SDS011;13092;51.996;4.458;2023-05-10T07:33:58;35.20;;;32.15;;
25111;SDS011;13092;51.996;4.458;2023-05-10T07:36:26;35.30;;;32.10;;
25111;SDS011;13092;51.996;4.458;2023-05-10T07:38:55;35.90;;;32.58;;
25111;SDS011;13092;51.996;4.458;2023-05-10T07:41:26;36.50;;;33.30;;
25111;SDS011;13092;51.996;4.458;2023-05-10T07:43:59;35.80;;;32.40;;
25111;SDS011;13092;51.996;4.458;2023-05-10T07:46:28;36.10;;;32.75;;
25111;SDS011;13092;51.996;4.458;2023-05-10T07:48:56;35.90;;;32.72;;
25111;SDS011;13092;51.996;4.458;2023-05-10T07:51:25;34.05;;;31.15;;
25111;SDS011;13092;51.996;4.458;2023-05-10T07:53:54;34.60;;;31.60;;
25111;SDS011;13092;51.996;4.458;2023-05-10T07:56:26;35.30;;;32.38;;
25111;SDS011;13092;51.996;4.458;2023-05-10T07:58:56;36.95;;;33.47;;
25111;SDS011;13092;51.996;4.458;2023-05-10T08:01:30;36.83;;;33.50;;
25111;SDS011;13092;51.996;4.458;2023-05-10T08:06:45;36.90;;;33.60;;
25111;SDS011;13092;51.996;4.458;2023-05-10T08:09:19;36.30;;;33.03;;
25111;SDS011;13092;51.996;4.458;2023-05-10T08:11:50;36.30;;;33.20;;
25111;SDS011;13092;51.996;4.458;2023-05-10T08:14:28;35.65;;;32.65;;
25111;SDS011;13092;51.996;4.458;2023-05-10T08:17:01;37.00;;;33.80;;
25111;SDS011;13092;51.996;4.458;2023-05-10T08:19:30;36.55;;;33.25;;
25111;SDS011;13092;51.996;4.458;2023-05-10T08:22:04;35.97;;;32.88;;
25111;SDS011;13092;51.996;4.458;2023-05-10T08:24:35;35.83;;;32.63;;
25111;SDS011;13092;51.996;4.458;2023-05-10T08:27:04;36.05;;;32.95;;
25111;SDS011;13092;51.996;4.458;2023-05-10T08:29:39;35.55;;;32.60;;
25111;SDS011;13092;51.996;4.458;2023-05-10T08:32:18;35.80;;;32.75;;
25111;SDS011;13092;51.996;4.458;2023-05-10T08:34:59;35.65;;;32.67;;
25111;SDS011;13092;51.996;4.458;2023-05-10T08:37:32;35.95;;;32.90;;
25111;SDS011;13092;51.996;4.458;2023-05-10T08:40:01;35.47;;;32.50;;
25111;SDS011;13092;51.996;4.458;2023-05-10T08:42:33;35.22;;;32.30;;
25111;SDS011;13092;51.996;4.458;2023-05-10T08:45:13;34.90;;;31.88;;
25111;SDS011;13092;51.996;4.458;2023-05-10T08:47:43;34.83;;;31.83;;
25111;SDS011;13092;51.996;4.458;2023-05-10T08:50:18;35.47;;;32.35;;
25111;SDS011;13092;51.996;4.458;2023-05-10T08:52:53;36.33;;;33.13;;
25111;SDS011;13092;51.996;4.458;2023-05-10T08:55:25;36.20;;;32.90;;
25111;SDS011;13092;51.996;4.458;2023-05-10T08:57:58;36.83;;;33.53;;
25111;SDS011;13092;51.996;4.458;2023-05-10T09:00:29;36.78;;;33.67;;
25111;SDS011;13092;51.996;4.458;2023-05-10T09:02:59;35.90;;;32.80;;
25111;SDS011;13092;51.996;4.458;2023-05-10T09:05:30;37.35;;;34.22;;
25111;SDS011;13092;51.996;4.458;2023-05-10T09:08:08;35.65;;;32.60;;
25111;SDS011;13092;51.996;4.458;2023-05-10T09:10:44;36.15;;;33.15;;
25111;SDS011;13092;51.996;4.458;2023-05-10T09:13:13;36.80;;;33.70;;
25111;SDS011;13092;51.996;4.458;2023-05-10T09:15:46;36.55;;;33.65;;
25111;SDS011;13092;51.996;4.458;2023-05-10T09:18:20;37.03;;;33.88;;
25111;SDS011;13092;51.996;4.458;2023-05-10T09:20:53;36.08;;;33.03;;
25111;SDS011;13092;51.996;4.458;2023-05-10T09:23:25;38.83;;;35.47;;
25111;SDS011;13092;51.996;4.458;2023-05-10T09:26:03;38.63;;;35.33;;
25111;SDS011;13092;51.996;4.458;2023-05-10T09:28:49;38.63;;;35.22;;
25111;SDS011;13092;51.996;4.458;2023-05-10T09:31:23;39.17;;;35.58;;
25111;SDS011;13092;51.996;4.458;2023-05-10T09:34:17;39.50;;;36.03;;
25111;SDS011;13092;51.996;4.458;2023-05-10T09:36:51;40.15;;;36.35;;
25111;SDS011;13092;51.996;4.458;2023-05-10T09:39:32;40.47;;;36.78;;
25111;SDS011;13092;51.996;4.458;2023-05-10T09:42:09;40.08;;;36.35;;
25111;SDS011;13092;51.996;4.458;2023-05-10T09:44:39;40.80;;;37.20;;
25111;SDS011;13092;51.996;4.458;2023-05-10T09:47:11;40.83;;;37.15;;
25111;SDS011;13092;51.996;4.458;2023-05-10T09:49:49;40.45;;;36.85;;
25111;SDS011;13092;51.996;4.458;2023-05-10T09:52:17;40.65;;;37.15;;
25111;SDS011;13092;51.996;4.458;2023-05-10T09:54:47;39.65;;;36.20;;
25111;SDS011;13092;51.996;4.458;2023-05-10T09:57:24;41.45;;;37.95;;
25111;SDS011;13092;51.996;4.458;2023-05-10T10:00:00;42.05;;;38.55;;
25111;SDS011;13092;51.996;4.458;2023-05-10T10:02:32;41.17;;;37.58;;
25111;SDS011;13092;51.996;4.458;2023-05-10T10:05:01;42.50;;;38.60;;
25111;SDS011;13092;51.996;4.458;2023-05-10T10:07:33;43.83;;;40.03;;
25111;SDS011;13092;51.996;4.458;2023-05-10T10:10:05;42.30;;;38.70;;
25111;SDS011;13092;51.996;4.458;2023-05-10T10:12:41;43.17;;;39.33;;
25111;SDS011;13092;51.996;4.458;2023-05-10T10:15:15;43.00;;;39.22;;
25111;SDS011;13092;51.996;4.458;2023-05-10T10:17:50;42.80;;;38.92;;
25111;SDS011;13092;51.996;4.458;2023-05-10T10:20:19;43.83;;;40.00;;
25111;SDS011;13092;51.996;4.458;2023-05-10T10:22:50;44.88;;;40.63;;
25111;SDS011;13092;51.996;4.458;2023-05-10T10:25:24;44.90;;;40.85;;
25111;SDS011;13092;51.996;4.458;2023-05-10T10:27:57;44.92;;;41.03;;
25111;SDS011;13092;51.996;4.458;2023-05-10T10:30:36;46.67;;;42.65;;
25111;SDS011;13092;51.996;4.458;2023-05-10T10:36:04;45.70;;;41.45;;
25111;SDS011;13092;51.996;4.458;2023-05-10T10:38:36;46.35;;;42.15;;
25111;SDS011;13092;51.996;4.458;2023-05-10T10:41:08;46.17;;;41.97;;
25111;SDS011;13092;51.996;4.458;2023-05-10T10:47:00;45.47;;;41.38;;
25111;SDS011;13092;51.996;4.458;2023-05-10T10:49:37;45.85;;;41.50;;
25111;SDS011;13092;51.996;4.458;2023-05-10T10:52:13;45.25;;;41.22;;
25111;SDS011;13092;51.996;4.458;2023-05-10T10:54:52;45.53;;;41.42;;
25111;SDS011;13092;51.996;4.458;2023-05-10T10:57:21;46.53;;;42.22;;
25111;SDS011;13092;51.996;4.458;2023-05-10T10:59:54;45.63;;;41.72;;
25111;SDS011;13092;51.996;4.458;2023-05-10T11:02:50;45.63;;;41.55;;
25111;SDS011;13092;51.996;4.458;2023-05-10T11:08:17;47.17;;;42.92;;
25111;SDS011;13092;51.996;4.458;2023-05-10T11:11:04;47.22;;;43.13;;
25111;SDS011;13092;51.996;4.458;2023-05-10T11:13:40;47.63;;;43.30;;
25111;SDS011;13092;51.996;4.458;2023-05-10T11:16:10;46.95;;;42.75;;
25111;SDS011;13092;51.996;4.458;2023-05-10T11:18:53;47.10;;;42.90;;
25111;SDS011;13092;51.996;4.458;2023-05-10T11:21:25;47.58;;;43.15;;
25111;SDS011;13092;51.996;4.458;2023-05-10T11:23:54;47.38;;;43.28;;
25111;SDS011;13092;51.996;4.458;2023-05-10T11:26:36;46.28;;;42.47;;
25111;SDS011;13092;51.996;4.458;2023-05-10T11:29:08;45.70;;;41.80;;
25111;SDS011;13092;51.996;4.458;2023-05-10T11:31:44;46.97;;;43.00;;
25111;SDS011;13092;51.996;4.458;2023-05-10T11:34:22;47.60;;;43.78;;
25111;SDS011;13092;51.996;4.458;2023-05-10T11:36:53;46.58;;;42.67;;
25111;SDS011;13092;51.996;4.458;2023-05-10T11:39:25;47.25;;;43.25;;
25111;SDS011;13092;51.996;4.458;2023-05-10T11:41:58;45.72;;;41.83;;
25111;SDS011;13092;51.996;4.458;2023-05-10T11:44:28;45.80;;;41.72;;
25111;SDS011;13092;51.996;4.458;2023-05-10T11:46:58;47.72;;;43.53;;
25111;SDS011;13092;51.996;4.458;2023-05-10T11:49:27;48.10;;;44.10;;
25111;SDS011;13092;51.996;4.458;2023-05-10T11:52:04;47.50;;;43.33;;
25111;SDS011;13092;51.996;4.458;2023-05-10T11:54:33;47.67;;;43.67;;
25111;SDS011;13092;51.996;4.458;2023-05-10T11:57:02;47.83;;;43.53;;
25111;SDS011;13092;51.996;4.458;2023-05-10T11:59:31;47.22;;;43.38;;
25111;SDS011;13092;51.996;4.458;2023-05-10T12:01:59;46.83;;;42.83;;
25111;SDS011;13092;51.996;4.458;2023-05-10T12:04:28;47.42;;;43.15;;
25111;SDS011;13092;51.996;4.458;2023-05-10T12:06:56;47.15;;;43.15;;
25111;SDS011;13092;51.996;4.458;2023-05-10T12:09:26;46.03;;;42.10;;
25111;SDS011;13092;51.996;4.458;2023-05-10T12:12:08;46.35;;;42.20;;
25111;SDS011;13092;51.996;4.458;2023-05-10T12:14:39;45.33;;;41.53;;
25111;SDS011;13092;51.996;4.458;2023-05-10T12:17:11;47.97;;;43.65;;
25111;SDS011;13092;51.996;4.458;2023-05-10T12:19:40;47.72;;;43.58;;
25111;SDS011;13092;51.996;4.458;2023-05-10T12:22:11;48.67;;;44.58;;
25111;SDS011;13092;51.996;4.458;2023-05-10T12:24:41;48.03;;;43.83;;
25111;SDS011;13092;51.996;4.458;2023-05-10T12:27:11;47.30;;;42.95;;
25111;SDS011;13092;51.996;4.458;2023-05-10T12:29:41;47.38;;;42.97;;
25111;SDS011;13092;51.996;4.458;2023-05-10T12:32:11;47.15;;;42.80;;
25111;SDS011;13092;51.996;4.458;2023-05-10T12:34:43;46.75;;;42.55;;
25111;SDS011;13092;51.996;4.458;2023-05-10T12:37:14;47.05;;;42.85;;
25111;SDS011;13092;51.996;4.458;2023-05-10T12:39:45;45.33;;;41.40;;
25111;SDS011;13092;51.996;4.458;2023-05-10T12:42:16;45.63;;;41.33;;
25111;SDS011;13092;51.996;4.458;2023-05-10T12:44:47;44.83;;;40.53;;
25111;SDS011;13092;51.996;4.458;2023-05-10T12:47:15;44.75;;;40.75;;
25111;SDS011;13092;51.996;4.458;2023-05-10T12:49:44;44.78;;;40.75;;
25111;SDS011;13092;51.996;4.458;2023-05-10T12:52:12;46.03;;;41.72;;
25111;SDS011;13092;51.996;4.458;2023-05-10T12:54:40;48.10;;;43.97;;
25111;SDS011;13092;51.996;4.458;2023-05-10T12:57:12;47.53;;;43.72;;
25111;SDS011;13092;51.996;4.458;2023-05-10T12:59:44;45.53;;;41.63;;
25111;SDS011;13092;51.996;4.458;2023-05-10T13:02:12;46.50;;;42.50;;
25111;SDS011;13092;51.996;4.458;2023-05-10T13:04:40;45.75;;;41.75;;
25111;SDS011;13092;51.996;4.458;2023-05-10T13:07:09;46.25;;;42.45;;
25111;SDS011;13092;51.996;4.458;2023-05-10T13:09:40;45.70;;;42.00;;
25111;SDS011;13092;51.996;4.458;2023-05-10T13:12:09;46.03;;;42.28;;
25111;SDS011;13092;51.996;4.458;2023-05-10T13:14:41;46.58;;;42.67;;
25111;SDS011;13092;51.996;4.458;2023-05-10T13:17:09;46.60;;;42.80;;
25111;SDS011;13092;51.996;4.458;2023-05-10T13:19:42;46.78;;;42.95;;
25111;SDS011;13092;51.996;4.458;2023-05-10T13:22:13;48.10;;;44.10;;
25111;SDS011;13092;51.996;4.458;2023-05-10T13:24:51;48.10;;;43.75;;
25111;SDS011;13092;51.996;4.458;2023-05-10T13:27:19;47.33;;;43.35;;
25111;SDS011;13092;51.996;4.458;2023-05-10T13:29:49;47.53;;;43.50;;
25111;SDS011;13092;51.996;4.458;2023-05-10T13:32:17;46.33;;;42.42;;
25111;SDS011;13092;51.996;4.458;2023-05-10T13:38:38;46.88;;;42.88;;
25111;SDS011;13092;51.996;4.458;2023-05-10T13:41:23;46.33;;;42.42;;
25111;SDS011;13092;51.996;4.458;2023-05-10T13:43:53;46.45;;;42.45;;
25111;SDS011;13092;51.996;4.458;2023-05-10T13:46:26;45.97;;;42.15;;
25111;SDS011;13092;51.996;4.458;2023-05-10T13:52:31;46.55;;;42.65;;
25111;SDS011;13092;51.996;4.458;2023-05-10T13:57:14;47.28;;;43.20;;
25111;SDS011;13092;51.996;4.458;2023-05-10T13:59:41;46.67;;;42.67;;
25111;SDS011;13092;51.996;4.458;2023-05-10T14:02:10;45.95;;;42.05;;
25111;SDS011;13092;51.996;4.458;2023-05-10T14:04:39;45.83;;;42.03;;
25111;SDS011;13092;51.996;4.458;2023-05-10T14:07:08;46.40;;;42.42;;
25111;SDS011;13092;51.996;4.458;2023-05-10T14:09:36;47.53;;;43.47;;
25111;SDS011;13092;51.996;4.458;2023-05-10T14:12:05;48.05;;;43.45;;
25111;SDS011;13092;51.996;4.458;2023-05-10T14:14:35;47.67;;;43.42;;
25111;SDS011;13092;51.996;4.458;2023-05-10T14:17:04;48.47;;;44.33;;
25111;SDS011;13092;51.996;4.458;2023-05-10T14:19:36;47.50;;;43.38;;
25111;SDS011;13092;51.996;4.458;2023-05-10T14:22:05;47.58;;;43.38;;
25111;SDS011;13092;51.996;4.458;2023-05-10T14:24:33;49.33;;;45.13;;
25111;SDS011;13092;51.996;4.458;2023-05-10T14:27:02;49.63;;;45.33;;
25111;SDS011;13092;51.996;4.458;2023-05-10T14:29:31;48.50;;;44.28;;
25111;SDS011;13092;51.996;4.458;2023-05-10T14:31:59;49.30;;;44.90;;
25111;SDS011;13092;51.996;4.458;2023-05-10T14:34:29;50.17;;;45.88;;
25111;SDS011;13092;51.996;4.458;2023-05-10T14:37:01;49.33;;;45.13;;
25111;SDS011;13092;51.996;4.458;2023-05-10T14:39:36;47.92;;;43.72;;
25111;SDS011;13092;51.996;4.458;2023-05-10T14:42:08;47.88;;;43.88;;
25111;SDS011;13092;51.996;4.458;2023-05-10T14:44:52;48.20;;;44.00;;
25111;SDS011;13092;51.996;4.458;2023-05-10T14:47:27;48.50;;;44.40;;
25111;SDS011;13092;51.996;4.458;2023-05-10T14:49:56;49.33;;;45.13;;
25111;SDS011;13092;51.996;4.458;2023-05-10T14:52:26;49.20;;;45.20;;
25111;SDS011;13092;51.996;4.458;2023-05-10T14:55:00;49.20;;;45.17;;
25111;SDS011;13092;51.996;4.458;2023-05-10T14:57:38;49.13;;;45.17;;
25111;SDS011;13092;51.996;4.458;2023-05-10T15:00:10;48.85;;;44.83;;
25111;SDS011;13092;51.996;4.458;2023-05-10T15:02:42;48.47;;;44.58;;
25111;SDS011;13092;51.996;4.458;2023-05-10T15:05:19;48.50;;;44.70;;
25111;SDS011;13092;51.996;4.458;2023-05-10T15:07:51;49.53;;;45.63;;